Time;durP1;ratioP1;P1;durP2;ratioP2;P2;SDS_P1;SDS_P2;PMS_P1;PMS_P2;Temp;Humidity;BMP_temperature;BMP_pressure;BME280_temperature;BME280_humidity;BME280_pressure;Samples;Min_cycle;Max_cycle;Signal;HPM_P1;HPM_P2
2023/01/15 00:01:27;;;;;;;;;;;;;;;6.92;96.38;100293.28;5089950;28;20035;-41
2023/01/15 00:03:53;;;;;;;;;;;;;;;6.95;96.68;100295.63;5089703;28;20287;-41
2023/01/15 00:06:19;;;;;;;;;;;;;;;7.04;95.39;100301.72;5089763;28;19951;-43
2023/01/15 00:08:44;;;;;;;;;;;;;;;7.14;95.18;100296.25;5093382;28;19912;-42
2023/01/15 00:11:10;;;;;;;;;;;;;;;7.00;95.67;100293.28;5093701;28;20018;-43
2023/01/15 00:13:35;;;;;;;;;;;;;;;6.97;95.15;100304.22;5094106;28;20237;-43
2023/01/15 00:16:08;;;;;;;;;;;;;;;6.97;95.84;100304.22;5093403;28;20306;-43
2023/01/15 00:18:34;;;;;;;;;;;;;;;6.97;95.68;100300.75;5093327;28;19927;-41
2023/01/15 00:21:00;;;;;;;;;;;;;;;6.88;95.23;100301.75;5093243;28;19916;-41
2023/01/15 00:28:58;;;;;;;;;;;;;;;7.20;94.59;100300.91;5061277;28;19931;-42
2023/01/15 00:31:23;;;;;;;;;;;;;;;6.93;95.85;100297.63;5093171;28;19916;-43
2023/01/15 00:33:48;;;;;;;;;;;;;;;6.81;96.28;100297.09;5093443;28;19916;-41
2023/01/15 00:36:14;;;;;;;;;;;;;;;6.85;95.54;100294.94;5093337;28;19912;-41
2023/01/15 00:38:39;;;;;;;;;;;;;;;6.81;97.18;100301.56;5093856;28;19912;-40
2023/01/15 00:41:04;;;;;;;;;;;;;;;6.87;96.49;100298.25;5093414;28;20382;-42
2023/01/15 00:43:29;;;;;;;;;;;;;;;6.98;95.93;100300.56;5092844;28;19912;-41
2023/01/15 00:45:55;;;;;;;;;;;;;;;7.11;94.75;100301.91;5093029;28;19912;-41
2023/01/15 00:48:20;;;;;;;;;;;;;;;7.07;94.96;100296.09;5092995;28;19916;-42
2023/01/15 00:50:46;;;;;;;;;;;;;;;7.11;95.38;100296.59;5092899;28;19916;-42
2023/01/15 00:53:11;;;;;;;;;;;;;;;7.03;95.58;100300.91;5092939;28;19912;-42
2023/01/15 00:55:36;;;;;;;;;;;;;;;7.04;94.57;100291.13;5092697;28;19912;-42
2023/01/15 00:58:01;;;;;;;;;;;;;;;6.93;94.94;100297.63;5092826;28;19912;-41
2023/01/15 01:00:27;;;;;;;;;;;;;;;7.01;94.54;100294.13;5092598;28;20362;-42
2023/01/15 01:02:52;;;;;;;;;;;;;;;6.98;94.62;100287.34;5093287;28;20005;-42
2023/01/15 01:05:17;;;;;;;;;;;;;;;7.04;95.34;100296.44;5093071;28;20277;-42
2023/01/15 01:07:42;;;;;;;;;;;;;;;7.02;95.43;100288.66;5093538;28;20069;-43
2023/01/15 01:10:08;;;;;;;;;;;;;;;6.95;95.91;100295.63;5093014;28;20436;-43
2023/01/15 01:12:33;;;;;;;;;;;;;;;7.11;94.45;100288.66;5093403;28;19916;-42
2023/01/15 01:14:58;;;;;;;;;;;;;;;6.92;95.14;100292.47;5093196;28;19927;-42
2023/01/15 01:17:24;;;;;;;;;;;;;;;6.90;95.33;100289.19;5092803;28;19923;-42
2023/01/15 01:19:49;;;;;;;;;;;;;;;6.97;95.48;100290.16;5091345;28;20344;-42
2023/01/15 01:22:14;;;;;;;;;;;;;;;6.66;95.69;100293.44;5092900;28;19912;-42
2023/01/15 01:24:40;;;;;;;;;;;;;;;6.83;96.56;100291.63;5092792;28;19923;-42
2023/01/15 01:27:05;;;;;;;;;;;;;;;6.80;96.85;100289.34;5092743;28;19961;-42
2023/01/15 01:29:30;;;;;;;;;;;;;;;6.77;96.54;100290.47;5093026;28;20003;-42
2023/01/15 01:31:55;;;;;;;;;;;;;;;6.91;95.74;100280.22;5093128;28;19916;-42
2023/01/15 01:34:21;;;;;;;;;;;;;;;6.82;95.84;100287.34;5092735;28;20551;-42
2023/01/15 01:36:46;;;;;;;;;;;;;;;6.76;95.75;100288.00;5093422;28;19912;-43
2023/01/15 01:39:13;;;;;;;;;;;;;;;6.96;95.06;100291.16;5093242;28;19916;-41
2023/01/15 01:41:38;;;;;;;;;;;;;;;6.91;95.24;100285.53;5093202;28;20333;-46
2023/01/15 01:44:26;;;;;;;;;;;;;;;6.92;95.19;100282.72;5093186;28;19912;-42
2023/01/15 01:46:52;;;;;;;;;;;;;;;6.88;95.67;100280.56;5092540;28;19912;-41
2023/01/15 01:49:17;;;;;;;;;;;;;;;6.89;95.65;100283.03;5092514;28;19920;-41
2023/01/15 01:51:44;;;;;;;;;;;;;;;6.70;96.55;100281.56;5092518;28;19980;-41
2023/01/15 01:54:11;;;;;;;;;;;;;;;6.67;96.68;100283.72;5092766;28;20407;-42
2023/01/15 01:56:37;;;;;;;;;;;;;;;6.66;96.26;100282.88;5092481;28;19951;-42
2023/01/15 01:59:03;;;;;;;;;;;;;;;6.68;96.82;100283.53;5092547;28;19912;-42
2023/01/15 02:01:29;;;;;;;;;;;;;;;6.78;96.60;100278.94;5092224;28;19912;-43
2023/01/15 02:03:54;;;;;;;;;;;;;;;6.81;96.80;100280.41;5092299;28;19938;-43
2023/01/15 02:06:21;;;;;;;;;;;;;;;6.76;97.08;100274.78;5092169;28;19919;-43
2023/01/15 02:08:46;;;;;;;;;;;;;;;6.70;97.10;100280.72;5092278;28;19920;-44
2023/01/15 02:11:14;;;;;;;;;;;;;;;6.68;97.68;100280.88;5092172;28;19916;-43
2023/01/15 02:13:44;;;;;;;;;;;;;;;6.81;96.62;100280.41;5092425;28;20307;-43
2023/01/15 02:16:27;;;;;;;;;;;;;;;6.87;96.06;100273.63;5092156;28;19916;-43
2023/01/15 02:18:53;;;;;;;;;;;;;;;6.89;95.79;100267.16;5091518;28;20508;-43
2023/01/15 02:21:36;;;;;;;;;;;;;;;6.81;95.37;100275.09;5091651;28;19926;-42
2023/01/15 02:24:06;;;;;;;;;;;;;;;6.74;95.18;100237.94;5091736;28;19991;-42
2023/01/15 02:26:50;;;;;;;;;;;;;;;6.82;95.62;100269.66;5091665;28;19912;-42
2023/01/15 02:29:35;;;;;;;;;;;;;;;6.87;95.94;100266.50;5091712;28;19947;-42
2023/01/15 02:32:03;;;;;;;;;;;;;;;6.73;96.30;100273.28;5091513;28;19943;-43
2023/01/15 02:34:32;;;;;;;;;;;;;;;6.62;96.13;100266.50;5091936;28;19916;-43
2023/01/15 02:37:02;;;;;;;;;;;;;;;6.71;96.39;100266.53;5091418;28;19919;-42
2023/01/15 02:39:29;;;;;;;;;;;;;;;6.80;95.95;100260.25;5091501;28;19912;-43
2023/01/15 02:41:56;;;;;;;;;;;;;;;6.80;96.36;100269.00;5091743;28;19919;-43
2023/01/15 02:44:22;;;;;;;;;;;;;;;6.61;96.28;100269.34;5091364;28;20018;-43
2023/01/15 02:46:47;;;;;;;;;;;;;;;6.58;96.25;100270.47;5091354;28;20458;-42
2023/01/15 02:49:16;;;;;;;;;;;;;;;6.74;97.22;100271.47;5091344;28;19916;-42
2023/01/15 02:51:45;;;;;;;;;;;;;;;6.67;95.79;100267.84;5091112;28;19926;-42
2023/01/15 02:54:13;;;;;;;;;;;;;;;6.81;96.79;100267.19;5091591;28;20429;-42
2023/01/15 02:56:39;;;;;;;;;;;;;;;6.87;95.15;100268.34;5091418;28;19912;-43
2023/01/15 02:59:06;;;;;;;;;;;;;;;6.71;95.94;100264.69;5091406;28;19968;-43
2023/01/15 03:01:35;;;;;;;;;;;;;;;6.79;96.61;100275.28;5091151;28;19954;-43
2023/01/15 03:04:11;;;;;;;;;;;;;;;6.52;97.75;100272.97;5091484;28;19916;-43
2023/01/15 03:06:45;;;;;;;;;;;;;;;6.46;98.00;100272.63;5091222;28;19920;-43
2023/01/15 03:09:11;;;;;;;;;;;;;;;6.51;97.36;100279.22;5091088;28;19961;-43
2023/01/15 03:11:40;;;;;;;;;;;;;;;6.69;96.40;100279.91;5091117;28;19916;-42
2023/01/15 03:14:12;;;;;;;;;;;;;;;6.64;96.64;100261.06;5091259;28;19912;-42
2023/01/15 03:16:49;;;;;;;;;;;;;;;6.60;96.38;100265.03;5090902;28;19936;-42
2023/01/15 03:19:20;;;;;;;;;;;;;;;6.43;98.08;100262.34;5090614;28;20267;-42
2023/01/15 03:21:53;;;;;;;;;;;;;;;6.59;97.14;100264.22;5090639;28;19916;-42
2023/01/15 03:24:28;;;;;;;;;;;;;;;6.58;97.38;100267.81;5090904;28;20035;-42
2023/01/15 03:26:53;;;;;;;;;;;;;;;6.70;96.34;100271.00;5090611;28;19912;-42
2023/01/15 03:29:19;;;;;;;;;;;;;;;6.81;96.06;100265.34;5090526;28;19961;-43
2023/01/15 03:31:45;;;;;;;;;;;;;;;6.84;95.00;100270.31;5090619;28;19917;-42
2023/01/15 03:34:11;;;;;;;;;;;;;;;6.77;95.14;100266.69;5090904;28;19916;-42
2023/01/15 03:36:36;;;;;;;;;;;;;;;6.72;95.99;100260.22;5090750;28;20411;-43
2023/01/15 03:39:02;;;;;;;;;;;;;;;6.64;95.43;100263.69;5090544;28;19954;-41
2023/01/15 03:41:39;;;;;;;;;;;;;;;6.53;96.30;100254.28;5090055;28;19912;-41
2023/01/15 03:44:20;;;;;;;;;;;;;;;6.34;97.27;100260.72;5090441;28;19919;-41
2023/01/15 03:46:58;;;;;;;;;;;;;;;6.63;96.87;100262.88;5090108;28;20372;-41
2023/01/15 03:49:30;;;;;;;;;;;;;;;6.65;94.75;100260.06;5090048;28;19912;-41
2023/01/15 03:52:00;;;;;;;;;;;;;;;6.46;96.94;100255.94;5090319;28;19923;-41
2023/01/15 03:54:39;;;;;;;;;;;;;;;6.59;96.23;100260.75;5090466;28;19912;-41
2023/01/15 03:57:10;;;;;;;;;;;;;;;6.63;95.51;100260.22;5090393;28;19912;-41
2023/01/15 03:59:43;;;;;;;;;;;;;;;6.69;95.22;100260.56;5090569;28;19912;-41
2023/01/15 04:02:11;;;;;;;;;;;;;;;6.77;94.91;100265.84;5090207;28;19912;-42
2023/01/15 04:04:37;;;;;;;;;;;;;;;6.64;95.58;100263.69;5090199;28;19912;-41
2023/01/15 04:07:02;;;;;;;;;;;;;;;6.64;95.99;100274.28;5090572;28;19912;-41
2023/01/15 04:09:28;;;;;;;;;;;;;;;6.53;95.64;100277.25;5090223;28;20364;-41
2023/01/15 04:11:56;;;;;;;;;;;;;;;6.71;94.54;100263.88;5090674;28;20310;-41
2023/01/15 04:14:22;;;;;;;;;;;;;;;6.79;95.07;100271.81;5090765;28;20041;-41
2023/01/15 04:16:47;;;;;;;;;;;;;;;6.80;95.34;100271.66;5090133;28;19940;-41
2023/01/15 04:19:12;;;;;;;;;;;;;;;6.66;95.01;100277.59;5090121;28;20381;-41
2023/01/15 04:21:38;;;;;;;;;;;;;;;6.87;98.61;100282.38;5090189;28;19970;-41
2023/01/15 04:24:03;;;;;;;;;;;;;;;7.35;100.00;100278.03;5090569;28;19916;-41
2023/01/15 04:26:28;;;;;;;;;;;;;;;7.72;94.83;100276.56;5090125;28;19916;-41
2023/01/15 04:28:54;;;;;;;;;;;;;;;7.61;90.55;100277.75;5090134;28;20500;-41
2023/01/15 04:31:19;;;;;;;;;;;;;;;7.69;90.03;100271.63;5090094;28;19948;-39
2023/01/15 04:33:44;;;;;;;;;;;;;;;7.55;90.87;100286.41;5090270;28;19941;-40
2023/01/15 04:36:09;;;;;;;;;;;;;;;7.36;89.06;100286.78;5089848;28;19924;-42
2023/01/15 04:38:36;;;;;;;;;;;;;;;7.16;87.97;100281.03;5089319;28;19954;-43
2023/01/15 04:46:29;;;;;;;;;;;;;;;6.98;92.11;100299.75;5090103;28;20672;-42
2023/01/15 04:48:54;;;;;;;;;;;;;;;6.89;92.50;100298.09;5089691;28;19947;-42
2023/01/15 04:51:20;;;;;;;;;;;;;;;6.81;93.61;100301.56;5089359;28;20030;-42
2023/01/15 04:53:45;;;;;;;;;;;;;;;6.75;92.58;100294.28;5090362;28;20457;-42
2023/01/15 04:56:10;;;;;;;;;;;;;;;6.53;93.69;100293.97;5093654;28;19935;-42
2023/01/15 04:58:36;;;;;;;;;;;;;;;6.55;95.27;100291.13;5093663;28;19995;-42
2023/01/15 05:01:01;;;;;;;;;;;;;;;6.55;94.36;100297.25;5093442;28;20225;-42
2023/01/15 05:03:27;;;;;;;;;;;;;;;6.62;94.74;100300.88;5093376;28;19912;-42
2023/01/15 05:05:52;;;;;;;;;;;;;;;6.35;94.33;100298.56;5093351;28;19916;-42
2023/01/15 05:08:18;;;;;;;;;;;;;;;6.35;95.07;100296.72;5093616;28;20014;-42
2023/01/15 05:10:43;;;;;;;;;;;;;;;6.20;96.05;100298.34;5093636;28;19916;-42
2023/01/15 05:13:08;;;;;;;;;;;;;;;6.32;95.09;100304.16;5092829;28;20010;-42
2023/01/15 05:15:34;;;;;;;;;;;;;;;6.43;94.49;100303.84;5092909;28;19919;-42
2023/01/15 05:17:59;;;;;;;;;;;;;;;6.39;95.15;100302.53;5092589;28;20367;-42
2023/01/15 05:20:24;;;;;;;;;;;;;;;6.30;96.07;100299.03;5092060;28;20309;-42
2023/01/15 05:22:49;;;;;;;;;;;;;;;6.48;95.43;100308.66;5092713;28;19912;-42
2023/01/15 05:25:15;;;;;;;;;;;;;;;6.51;93.88;100305.66;5092569;28;20011;-42
2023/01/15 05:27:41;;;;;;;;;;;;;;;6.41;94.32;100305.81;5092444;28;19916;-42
2023/01/15 05:30:07;;;;;;;;;;;;;;;6.31;95.82;100308.63;5092704;28;19947;-42
2023/01/15 05:32:32;;;;;;;;;;;;;;;6.16;95.35;100274.06;5092520;28;20369;-42
2023/01/15 05:34:57;;;;;;;;;;;;;;;6.48;94.33;100309.47;5092341;28;19912;-42
2023/01/15 05:37:23;;;;;;;;;;;;;;;6.10;95.00;100298.50;5092843;28;19922;-42
2023/01/15 05:39:48;;;;;;;;;;;;;;;6.14;95.75;100320.97;5092764;28;19960;-42
2023/01/15 05:42:13;;;;;;;;;;;;;;;6.30;95.26;100322.81;5092823;28;19912;-42
2023/01/15 05:44:38;;;;;;;;;;;;;;;6.14;94.73;100309.56;5092647;28;19919;-42
2023/01/15 05:47:07;;;;;;;;;;;;;;;6.20;95.17;100315.03;5092724;28;19916;-42
2023/01/15 05:49:32;;;;;;;;;;;;;;;6.15;94.84;100313.84;5092686;28;19920;-42
2023/01/15 05:51:59;;;;;;;;;;;;;;;6.04;96.40;100310.53;5092423;28;20037;-42
2023/01/15 05:54:26;;;;;;;;;;;;;;;6.21;94.85;100315.88;5092390;28;20375;-42
2023/01/15 05:56:51;;;;;;;;;;;;;;;6.18;94.48;100326.75;5092548;28;20076;-42
2023/01/15 05:59:18;;;;;;;;;;;;;;;6.00;94.69;100317.13;5092190;28;19958;-42
2023/01/15 06:01:43;;;;;;;;;;;;;;;6.16;94.92;100320.81;5092532;28;19912;-42
2023/01/15 06:04:09;;;;;;;;;;;;;;;6.04;94.75;100318.44;5092161;28;19912;-42
2023/01/15 06:06:35;;;;;;;;;;;;;;;6.30;94.31;100314.06;5092098;28;19912;-42
2023/01/15 06:09:00;;;;;;;;;;;;;;;6.18;94.36;100311.72;5092492;28;19919;-42
2023/01/15 06:11:26;;;;;;;;;;;;;;;6.01;96.23;100315.28;5092099;28;20056;-42
2023/01/15 06:13:51;;;;;;;;;;;;;;;5.90;95.65;100307.63;5092147;28;20362;-43
2023/01/15 06:16:17;;;;;;;;;;;;;;;5.86;96.02;100315.03;5092040;28;19919;-42
2023/01/15 06:18:42;;;;;;;;;;;;;;;6.17;95.92;100317.16;5092226;28;19981;-42
2023/01/15 06:21:09;;;;;;;;;;;;;;;5.84;95.56;100317.00;5091624;28;19928;-42
2023/01/15 06:23:35;;;;;;;;;;;;;;;6.14;94.95;100310.38;5088787;28;20380;-42
2023/01/15 06:26:08;;;;;;;;;;;;;;;6.14;94.60;100310.38;5091524;28;19912;-42
2023/01/15 06:28:33;;;;;;;;;;;;;;;6.31;93.68;100311.25;5091054;28;19915;-42
2023/01/15 06:30:59;;;;;;;;;;;;;;;5.97;94.83;100308.69;5091675;28;20388;-42
2023/01/15 06:33:25;;;;;;;;;;;;;;;6.07;94.67;100312.00;5091591;28;19912;-42
2023/01/15 06:35:51;;;;;;;;;;;;;;;6.02;95.37;100311.69;5091253;28;19934;-42
2023/01/15 06:38:16;;;;;;;;;;;;;;;5.89;96.16;100312.09;5091552;28;19919;-43
2023/01/15 06:40:41;;;;;;;;;;;;;;;5.93;95.71;100318.72;5091218;28;19913;-43
2023/01/15 06:47:19;;;;;;;;;;;;;;;6.01;94.36;100317.94;5091376;28;19919;-43
2023/01/15 06:48:49;;;;;;;;;;;;;;;6.16;95.12;100326.09;5089900;28;19923;-43
2023/01/15 06:51:18;;;;;;;;;;;;;;;5.98;94.75;100321.75;5088787;28;19915;-43
2023/01/15 06:53:43;;;;;;;;;;;;;;;6.18;95.20;100321.47;5090506;28;19970;-43
2023/01/15 06:56:09;;;;;;;;;;;;;;;6.14;95.97;100320.97;5091634;28;20363;-43
2023/01/15 06:58:34;;;;;;;;;;;;;;;6.11;95.19;100323.09;5091191;28;19913;-43
2023/01/15 07:00:59;;;;;;;;;;;;;;;6.01;95.83;100328.50;5088606;28;20007;-43
2023/01/15 07:03:24;;;;;;;;;;;;;;;6.15;95.12;100327.91;5085703;28;19985;-43
2023/01/15 07:05:50;;;;;;;;;;;;;;;6.16;96.56;100326.91;5091347;28;20375;-43
2023/01/15 07:08:15;;;;;;;;;;;;;;;6.30;95.73;100330.75;5097425;28;20352;-43
2023/01/15 07:10:40;;;;;;;;;;;;;;;6.14;95.17;100328.88;5094375;28;19937;-43
2023/01/15 07:13:08;;;;;;;;;;;;;;;5.93;96.72;100334.56;5099965;28;20345;-43
2023/01/15 07:15:33;;;;;;;;;;;;;;;6.30;95.01;100327.28;5104664;28;19916;-43
2023/01/15 07:17:59;;;;;;;;;;;;;;;6.33;94.81;100335.72;5098958;28;20023;-49
2023/01/15 07:20:24;;;;;;;;;;;;;;;6.36;95.13;100330.13;5076657;28;19924;-49
2023/01/15 07:22:50;;;;;;;;;;;;;;;6.33;93.28;100332.25;5079584;28;19985;-43
2023/01/15 07:25:15;;;;;;;;;;;;;;;6.14;94.63;100333.34;5071294;28;20376;-43
2023/01/15 07:27:41;;;;;;;;;;;;;;;6.16;95.21;100339.31;5070777;28;19917;-43
2023/01/15 07:30:07;;;;;;;;;;;;;;;6.12;95.11;100345.91;5071110;28;20046;-42
2023/01/15 07:32:32;;;;;;;;;;;;;;;6.23;94.38;100333.22;5070787;28;20388;-42
2023/01/15 07:34:58;;;;;;;;;;;;;;;6.02;95.89;100336.28;5070834;28;19912;-42
2023/01/15 07:37:23;;;;;;;;;;;;;;;6.10;96.14;100343.41;5070871;28;19923;-37
2023/01/15 07:39:48;;;;;;;;;;;;;;;6.36;94.68;100334.56;5071142;28;19928;-42
2023/01/15 07:50:25;;;;;;;;;;;;;;;6.32;95.50;100343.81;5071006;28;20295;-36
2023/01/15 07:52:51;;;;;;;;;;;;;;;6.40;93.83;100341.19;5070551;28;20372;-36
2023/01/15 07:55:16;;;;;;;;;;;;;;;6.55;92.55;100344.88;5070168;28;20293;-36
2023/01/15 07:57:41;;;;;;;;;;;;;;;6.46;93.35;100345.84;5068943;28;20383;-35
2023/01/15 08:00:09;;;;;;;;;;;;;;;6.49;93.28;100342.84;5070176;28;19920;-36
2023/01/15 08:02:35;;;;;;;;;;;;;;;6.81;92.90;100350.00;5070266;28;20319;-37
2023/01/15 08:05:00;;;;;;;;;;;;;;;6.82;91.54;100356.16;5070152;28;19912;-37
2023/01/15 08:07:25;;;;;;;;;;;;;;;6.74;92.30;100354.31;5070462;28;20017;-37
2023/01/15 08:09:51;;;;;;;;;;;;;;;6.75;92.78;100357.78;5070649;28;19916;-36
2023/01/15 08:15:12;;;;;;;;;;;;;;;6.75;92.36;100361.25;5070724;28;20407;-35
2023/01/15 08:17:38;;;;;;;;;;;;;;;6.69;92.67;100361.91;5069985;28;19924;-42
2023/01/15 08:20:04;;;;;;;;;;;;;;;7.04;91.90;100363.44;5087458;28;19924;-43
2023/01/15 08:22:30;;;;;;;;;;;;;;;6.95;91.60;100356.47;5090354;28;20364;-37
2023/01/15 08:24:55;;;;;;;;;;;;;;;6.89;91.53;100351.00;5090129;28;19913;-37
2023/01/15 08:27:20;;;;;;;;;;;;;;;6.87;91.51;100351.16;5090018;28;19969;-37
2023/01/15 08:29:45;;;;;;;;;;;;;;;6.67;93.36;100360.44;5093531;28;20473;-44
2023/01/15 08:32:11;;;;;;;;;;;;;;;6.38;93.92;100354.56;5094284;28;19954;-37
2023/01/15 08:34:36;;;;;;;;;;;;;;;6.89;92.70;100361.59;5094005;28;20305;-42
2023/01/15 08:37:01;;;;;;;;;;;;;;;6.89;92.39;100358.94;5093637;28;19967;-42
2023/01/15 08:39:27;;;;;;;;;;;;;;;7.10;92.32;100361.09;5093514;28;19912;-42
2023/01/15 08:41:53;;;;;;;;;;;;;;;7.24;90.32;100358.63;5093454;28;19912;-36
2023/01/15 08:44:20;;;;;;;;;;;;;;;7.08;90.66;100350.69;5093489;28;19993;-42
2023/01/15 08:46:45;;;;;;;;;;;;;;;7.23;91.12;100358.78;5090807;28;19919;-36
2023/01/15 08:49:11;;;;;;;;;;;;;;;7.35;90.51;100349.53;5093780;28;20291;-36
2023/01/15 08:51:36;;;;;;;;;;;;;;;7.30;90.53;100345.72;5093851;28;19917;-36
2023/01/15 08:54:01;;;;;;;;;;;;;;;7.19;89.60;100357.47;5093573;28;19972;-36
2023/01/15 08:56:27;;;;;;;;;;;;;;;7.11;90.44;100345.06;5093729;28;19918;-36
2023/01/15 08:58:52;;;;;;;;;;;;;;;7.03;90.52;100345.06;5111551;28;20256;-36
2023/01/15 09:01:17;;;;;;;;;;;;;;;6.94;90.70;100354.81;5097602;27;19916;-38
2023/01/15 09:03:43;;;;;;;;;;;;;;;7.06;89.62;100347.38;5094095;28;19933;-36
2023/01/15 09:06:09;;;;;;;;;;;;;;;7.05;90.38;100345.72;5093028;28;19916;-36
2023/01/15 09:08:35;;;;;;;;;;;;;;;7.18;89.45;100342.59;5093084;28;19912;-36
2023/01/15 09:11:01;;;;;;;;;;;;;;;6.96;88.94;100342.25;5092242;28;20353;-42
2023/01/15 09:13:27;;;;;;;;;;;;;;;7.25;89.39;100338.25;5089781;28;19999;-41
2023/01/15 09:15:52;;;;;;;;;;;;;;;7.31;90.04;100345.56;5101282;28;20007;-42
2023/01/15 09:18:19;;;;;;;;;;;;;;;7.19;89.45;100341.59;5101294;28;20353;-42
2023/01/15 09:20:47;;;;;;;;;;;;;;;7.17;89.89;100338.28;5091930;28;19916;-36
2023/01/15 09:23:13;;;;;;;;;;;;;;;7.45;88.90;100330.78;5092137;28;19940;-36
2023/01/15 09:25:39;;;;;;;;;;;;;;;7.22;88.20;100323.53;5092262;28;20034;-36
2023/01/15 09:28:04;;;;;;;;;;;;;;;6.77;89.57;100329.34;5093003;28;19922;-36
2023/01/15 09:30:29;;;;;;;;;;;;;;;6.87;90.68;100324.72;5092271;28;19947;-36
2023/01/15 09:32:55;;;;;;;;;;;;;;;6.74;89.14;100322.56;5092685;28;19919;-36
2023/01/15 09:35:21;;;;;;;;;;;;;;;6.78;88.68;100315.13;5093027;28;20276;-36
2023/01/15 09:37:51;;;;;;;;;;;;;;;6.92;87.87;100313.66;5092783;28;19919;-36
2023/01/15 09:40:35;;;;;;;;;;;;;;;7.28;87.99;100315.94;5092076;28;19977;-36
2023/01/15 09:43:23;;;;;;;;;;;;;;;7.15;87.90;100305.84;5092481;28;20121;-36
2023/01/15 09:46:07;;;;;;;;;;;;;;;7.43;87.25;100312.41;5086630;28;19915;-36
2023/01/15 09:48:47;;;;;;;;;;;;;;;7.40;86.36;100304.81;5092393;28;20007;-36
2023/01/15 09:51:23;;;;;;;;;;;;;;;7.37;85.87;100305.16;5096116;28;19924;-36
2023/01/15 09:54:04;;;;;;;;;;;;;;;7.45;85.59;100306.97;5104267;28;19919;-36
2023/01/15 09:56:32;;;;;;;;;;;;;;;6.92;88.07;100309.19;5113204;28;19993;-37
2023/01/15 09:58:58;;;;;;;;;;;;;;;7.29;87.54;100301.69;5107302;28;19912;-36
2023/01/15 10:01:29;;;;;;;;;;;;;;;7.31;85.66;100303.19;5091871;28;19919;-36
2023/01/15 10:04:27;;;;;;;;;;;;;;;7.37;86.15;100299.88;5091828;28;20330;-37
2023/01/15 10:07:12;;;;;;;;;;;;;;;7.40;86.52;100291.56;5077418;28;19995;-36
2023/01/15 10:09:39;;;;;;;;;;;;;;;7.07;87.16;100290.00;5084245;28;19912;-42
2023/01/15 10:12:34;;;;;;;;;;;;;;;6.70;87.95;100288.66;5087341;28;19920;-36
2023/01/15 10:15:00;;;;;;;;;;;;;;;6.69;89.06;100282.56;5086117;28;19938;-35
2023/01/15 10:17:44;;;;;;;;;;;;;;;6.94;87.89;100283.38;5089635;28;19922;-42
2023/01/15 10:20:16;;;;;;;;;;;;;;;6.96;86.57;100270.78;5088588;28;20406;-42
2023/01/15 10:22:54;;;;;;;;;;;;;;;6.94;87.39;100258.75;5086101;28;20011;-42
2023/01/15 10:25:23;;;;;;;;;;;;;;;6.99;87.49;100259.06;5090647;28;19919;-42
2023/01/15 10:27:50;;;;;;;;;;;;;;;6.97;87.43;100253.94;5088698;28;19923;-42
2023/01/15 10:30:16;;;;;;;;;;;;;;;7.24;87.15;100249.25;5090954;28;19918;-42
2023/01/15 10:32:46;;;;;;;;;;;;;;;7.36;86.66;100245.25;5091504;28;19920;-42
2023/01/15 10:35:18;;;;;;;;;;;;;;;7.51;85.90;100233.94;5091385;28;19919;-42
2023/01/15 10:37:46;;;;;;;;;;;;;;;7.58;85.39;100229.63;5088660;28;20001;-41
2023/01/15 10:40:17;;;;;;;;;;;;;;;7.43;85.76;100225.03;5091238;28;20008;-37
2023/01/15 10:42:42;;;;;;;;;;;;;;;7.73;85.01;100225.25;5090863;28;19920;-36
2023/01/15 10:45:20;;;;;;;;;;;;;;;7.34;85.82;100223.41;5091141;28;19995;-36
2023/01/15 10:47:47;;;;;;;;;;;;;;;7.57;86.05;100228.78;5090904;28;19923;-42
2023/01/15 10:50:18;;;;;;;;;;;;;;;7.70;85.10;100225.59;5091285;28;19979;-42
2023/01/15 10:52:47;;;;;;;;;;;;;;;7.83;84.55;100217.91;5090400;28;19934;-42
2023/01/15 10:55:15;;;;;;;;;;;;;;;7.85;85.22;100219.56;5088566;28;19919;-42
2023/01/15 10:57:49;;;;;;;;;;;;;;;8.48;82.70;100207.06;5090836;28;20014;-42
2023/01/15 11:00:15;;;;;;;;;;;;;;;8.17;82.52;100202.63;5088695;28;19912;-43
2023/01/15 11:03:13;;;;;;;;;;;;;;;7.50;85.19;100200.50;5090571;28;19919;-42
2023/01/15 11:05:39;;;;;;;;;;;;;;;7.51;85.67;100199.53;5082821;28;19923;-42
2023/01/15 11:08:06;;;;;;;;;;;;;;;7.43;86.23;100195.91;5090871;28;20299;-42
2023/01/15 11:10:32;;;;;;;;;;;;;;;7.29;86.54;100188.69;5090824;28;19920;-43
2023/01/15 11:21:18;;;;;;;;;;;;;;;7.57;84.49;100180.28;5090171;28;19951;-42
2023/01/15 11:23:44;;;;;;;;;;;;;;;7.41;85.33;100179.38;5089008;28;20344;-42
2023/01/15 11:26:16;;;;;;;;;;;;;;;7.29;85.71;100177.25;5089141;28;20003;-41
2023/01/15 11:28:42;;;;;;;;;;;;;;;7.50;84.80;100179.31;5087391;28;19912;-41
2023/01/15 11:31:08;;;;;;;;;;;;;;;7.59;84.72;100167.69;5087415;28;19920;-42
2023/01/15 11:33:34;;;;;;;;;;;;;;;7.50;85.06;100163.44;5089883;28;20310;-41
2023/01/15 11:36:01;;;;;;;;;;;;;;;7.44;84.83;100165.78;5090206;28;19929;-36
2023/01/15 11:38:28;;;;;;;;;;;;;;;7.39;85.97;100162.81;5086265;28;19919;-42
2023/01/15 11:40:55;;;;;;;;;;;;;;;7.50;85.24;100163.44;5089692;28;20299;-43
2023/01/15 11:51:51;;;;;;;;;;;;;;;7.64;85.19;100152.13;5087966;28;19923;-42
2023/01/15 11:54:16;;;;;;;;;;;;;;;7.66;84.70;100152.75;5089168;28;19916;-42
2023/01/15 11:56:43;;;;;;;;;;;;;;;7.76;84.90;100148.06;5090391;28;20036;-42
2023/01/15 11:59:10;;;;;;;;;;;;;;;7.99;83.71;100153.38;5110264;28;19919;-43
2023/01/15 12:01:37;;;;;;;;;;;;;;;7.75;84.75;100141.13;5106390;28;20042;-37
2023/01/15 12:04:23;;;;;;;;;;;;;;;7.73;84.26;100140.47;5092543;28;19947;-35
2023/01/15 12:06:48;;;;;;;;;;;;;;;7.98;84.07;100135.81;5086358;28;20002;-42
2023/01/15 12:09:21;;;;;;;;;;;;;;;7.82;84.09;100135.94;5094090;28;19995;-37
2023/01/15 12:11:46;;;;;;;;;;;;;;;7.60;84.84;100130.44;5093414;28;19928;-43
2023/01/15 12:14:29;;;;;;;;;;;;;;;7.60;85.62;100127.78;5092694;28;20006;-36
2023/01/15 12:17:18;;;;;;;;;;;;;;;7.55;84.63;100124.84;5093171;28;19916;-45
2023/01/15 12:19:52;;;;;;;;;;;;;;;7.94;83.26;100118.63;5088074;28;19985;-43
2023/01/15 12:22:30;;;;;;;;;;;;;;;7.71;84.99;100115.13;5094712;28;19948;-43
2023/01/15 12:25:01;;;;;;;;;;;;;;;7.40;85.83;100105.38;5094096;28;19939;-42
2023/01/15 12:27:29;;;;;;;;;;;;;;;8.16;84.36;100103.69;5094366;28;20364;-42
2023/01/15 12:30:17;;;;;;;;;;;;;;;8.09;83.86;100108.09;5093054;28;19912;-43
2023/01/15 12:32:46;;;;;;;;;;;;;;;8.35;82.94;100110.31;5089614;28;19927;-42
2023/01/15 12:35:20;;;;;;;;;;;;;;;8.14;83.34;100103.06;5092555;28;19912;-42
2023/01/15 12:38:05;;;;;;;;;;;;;;;8.26;83.35;100094.66;5092585;28;19926;-42
2023/01/15 12:40:47;;;;;;;;;;;;;;;8.22;83.78;100092.41;5087074;28;20356;-36
2023/01/15 12:46:07;;;;;;;;;;;;;;;7.88;84.31;100103.44;5109622;28;20239;-36
2023/01/15 12:48:53;;;;;;;;;;;;;;;8.12;83.78;100091.81;5114206;28;19935;-42
2023/01/15 12:51:22;;;;;;;;;;;;;;;8.38;82.14;100091.41;5100109;28;19973;-42
2023/01/15 12:53:54;;;;;;;;;;;;;;;7.82;84.86;100098.84;5102645;28;19912;-42
2023/01/15 12:56:26;;;;;;;;;;;;;;;7.98;84.75;100088.13;5100746;28;19998;-42
2023/01/15 12:58:54;;;;;;;;;;;;;;;7.75;85.30;100095.22;5103995;28;19919;-43
2023/01/15 13:01:30;;;;;;;;;;;;;;;8.32;84.34;100091.28;5109468;28;19968;-43
2023/01/15 13:04:34;;;;;;;;;;;;;;;7.85;85.16;100081.78;5103280;28;19919;-41
2023/01/15 13:07:18;;;;;;;;;;;;;;;7.80;85.35;100087.59;5079106;28;19916;-43
2023/01/15 13:09:48;;;;;;;;;;;;;;;7.87;85.77;100087.72;5080795;28;19913;-43
2023/01/15 13:12:13;;;;;;;;;;;;;;;7.86;85.86;100084.22;5093115;28;20229;-43
2023/01/15 13:14:39;;;;;;;;;;;;;;;7.75;86.21;100085.47;5103528;28;19922;-42
2023/01/15 13:17:10;;;;;;;;;;;;;;;8.01;83.57;100081.63;5102891;28;19919;-42
2023/01/15 13:19:45;;;;;;;;;;;;;;;8.11;83.63;100073.44;5091230;28;19924;-42
2023/01/15 13:22:21;;;;;;;;;;;;;;;8.36;83.50;100082.00;5085144;28;19912;-42
2023/01/15 13:25:05;;;;;;;;;;;;;;;8.43;82.19;100085.59;5093620;28;19931;-42
2023/01/15 13:27:47;;;;;;;;;;;;;;;7.82;83.46;100086.44;5092869;28;20476;-42
2023/01/15 13:30:15;;;;;;;;;;;;;;;8.06;83.14;100078.47;5093621;28;19935;-42
2023/01/15 13:32:52;;;;;;;;;;;;;;;7.79;83.87;100075.34;5088605;28;20338;-42
2023/01/15 13:35:29;;;;;;;;;;;;;;;8.08;82.67;100079.91;5078961;28;19913;-41
2023/01/15 13:37:56;;;;;;;;;;;;;;;7.86;83.14;100072.81;5089221;28;19916;-42
2023/01/15 13:40:22;;;;;;;;;;;;;;;8.16;82.52;100074.53;5092476;28;20006;-42